Date,TemperatureHighF,TemperatureAvgF,TemperatureLowF,DewpointHighF,DewpointAvgF,DewpointLowF,HumidityHigh,HumidityAvg,HumidityLow,PressureMaxIn,PressureMinIn,WindSpeedMaxMPH,WindSpeedAvgMPH,GustSpeedMaxMPH,PrecipitationSumIn
2014-1-1,3,-7,-19,-7,-14,-27,77,69,61,0.00,40.00,2,0,7,0.00
2014-1-2,8,-3,-12,-3,-10,-19,77,70,56,0.00,40.00,4,2,9,0.00
2014-1-3,17,5,-16,11,-3,-22,80,70,61,0.00,40.00,17,10,33,0.00
2014-1-4,21,13,4,19,6,-100,90,78,72,0.00,40.00,11,7,24,0.00
2014-1-5,2,-9,-17,-5,-18,-25,73,65,52,0.00,40.00,7,5,16,0.00
2014-1-6,-16,-20,-26,-24,-30,-36,66,58,48,0.00,40.00,10,7,22,0.00
2014-1-7,-3,-14,-23,-15,-23,-32,70,62,54,0.00,40.00,11,7,20,0.00
2014-1-8,7,-5,-22,-8,-15,-30,69,60,43,0.00,40.00,7,4,12,0.00
2014-1-9,15,6,-24,11,-3,-32,83,68,50,0.00,40.00,12,8,22,0.00
2014-1-10,25,22,15,22,18,12,93,88,82,0.00,40.00,9,6,17,0.00
2014-1-11,28,25,24,25,21,-100,96,89,84,0.00,40.00,9,5,20,0.00
2014-1-12,36,29,23,28,24,20,89,80,66,0.00,40.00,11,7,23,0.00
2014-1-13,29,26,22,27,20,14,93,77,64,0.00,40.00,10,6,18,0.00
2014-1-14,21,17,12,15,12,7,85,80,70,0.00,40.00,8,5,19,0.00
2014-1-15,13,10,6,8,3,-1,83,73,57,0.00,40.00,13,7,28,0.00
2014-1-16,25,15,9,22,11,4,90,83,78,0.00,40.00,12,7,25,0.00
2014-1-17,17,14,7,14,9,3,88,83,76,0.00,40.00,7,4,14,0.00
2014-1-18,22,12,-1,14,3,-100,86,73,56,0.00,40.00,9,3,18,0.00
2014-1-19,26,19,4,22,16,0,87,85,79,0.00,40.00,11,6,21,0.00
2014-1-20,9,2,-3,5,-5,-10,84,73,64,0.00,40.00,8,5,18,0.00
2014-1-21,6,-2,-8,-8,-11,-15,73,62,48,0.00,40.00,8,5,16,0.00
2014-1-22,2,0,-4,-4,-7,-10,76,72,60,0.00,40.00,9,6,23,0.00
2014-1-23,1,-4,-10,-7,-12,-18,75,67,55,0.00,40.00,8,6,19,0.00
2014-1-24,23,11,-9,21,5,-18,91,78,56,0.00,40.00,12,8,34,0.00
2014-1-25,16,1,-5,11,-8,-100,80,68,57,0.00,40.00,15,9,31,0.00
2014-1-26,4,-1,-5,-3,-8,-13,78,72,64,0.00,40.00,10,4,25,0.00
2014-1-27,-5,-11,-16,-11,-20,-26,73,62,52,0.00,40.00,12,9,27,0.00
2014-1-28,-3,-10,-22,-11,-20,-31,66,61,52,0.00,40.00,11,8,22,0.00
2014-1-29,20,8,-8,6,-6,-16,68,55,41,0.00,40.00,12,9,24,0.00
2014-1-30,23,14,0,15,7,-8,85,74,56,0.00,40.00,9,6,19,0.00
2014-1-31,9,-4,-14,-7,-13,-21,70,62,45,0.00,40.00,8,5,15,0.00
2014-2-1,14,7,-17,6,-3,-100,78,68,58,0.00,40.00,9,5,16,0.00
2014-2-2,12,4,-8,2,-6,-15,78,64,39,0.00,40.00,7,4,14,0.00
2014-2-3,24,16,2,9,4,-5,73,59,50,0.00,40.00,8,5,16,0.00
2014-2-4,22,13,-2,3,0,-11,82,57,36,0.00,40.00,6,3,10,0.00
2014-2-5,6,2,-3,0,-5,-11,80,72,62,0.00,40.00,7,5,14,0.00
2014-2-6,11,-1,-10,-10,-13,-17,73,57,37,0.00,40.00,11,7,21,0.00
2014-2-7,17,4,-8,-8,-11,-14,74,52,30,0.00,40.00,11,8,22,0.00
2014-2-8,20,7,-6,4,-4,-14,79,63,46,0.00,40.00,6,2,13,0.00
2014-2-9,9,3,-5,0,-5,-14,81,68,55,0.00,40.00,10,5,18,0.00
2014-2-10,5,-3,-17,-10,-13,-24,73,61,44,0.00,40.00,8,4,16,0.00
2014-2-11,19,10,-23,-7,-10,-32,61,40,27,0.00,40.00,12,9,27,0.00
2014-2-12,25,13,4,9,4,-2,82,67,42,0.00,40.00,10,5,21,0.00
2014-2-13,20,15,10,15,11,6,88,82,74,0.00,40.00,9,5,20,0.00
2014-2-14,11,7,1,3,0,-5,81,73,64,0.00,40.00,8,5,15,0.00
2014-2-15,20,11,-23,12,1,-100,87,69,47,0.00,40.00,6,3,12,0.00
2014-2-16,23,12,-1,6,2,-7,82,68,43,0.00,40.00,8,4,15,0.00
2014-2-17,26,19,10,19,13,3,89,79,70,0.00,40.00,11,7,25,0.00
2014-2-18,44,28,19,25,20,16,93,73,46,0.00,40.00,10,6,20,0.00
2014-2-19,45,35,16,21,15,10,85,48,26,0.00,40.00,12,5,20,0.00
2014-2-20,41,34,30,30,24,15,97,70,37,0.00,40.00,10,6,25,0.00
2014-2-21,30,20,8,29,16,3,97,86,75,0.00,40.00,13,9,27,0.00
2014-2-22,17,9,4,7,1,-100,81,72,63,0.00,40.00,13,9,24,0.00
2014-2-23,16,8,2,6,-1,-6,83,68,46,0.00,40.00,13,10,26,0.00
2014-2-24,13,6,2,3,-2,-5,80,68,54,0.00,40.00,9,7,18,0.00
2014-2-25,4,0,-9,-5,-10,-16,75,63,45,0.00,40.00,12,8,24,0.00
2014-2-26,9,-2,-11,1,-13,-22,76,59,41,0.00,40.00,14,9,29,0.00
2014-2-27,-1,-6,-10,-11,-23,-100,72,58,39,0.00,40.00,10,6,24,0.00
2014-2-28,9,2,-30,0,-24,-100,79,62,41,0.00,40.00,11,5,20,0.00
2014-3-1,3,-3,-14,-5,-14,-100,75,62,50,0.00,40.00,9,5,16,0.00
2014-3-2,7,-5,-25,-18,-25,-34,61,40,23,0.00,40.00,8,6,17,0.00
2014-3-3,20,11,-15,3,-7,-26,79,46,29,0.00,40.00,7,5,16,0.00
2014-3-4,22,11,-3,4,0,-8,79,64,43,0.00,40.00,5,3,10,0.00
2014-3-5,26,14,-20,-2,-8,-28,68,38,22,0.00,40.00,6,4,14,0.00
2014-3-6,33,19,4,16,6,-12,76,56,40,0.00,40.00,14,10,31,0.00
2014-3-7,28,24,15,25,19,10,90,82,64,0.00,40.00,9,6,19,0.00
2014-3-8,29,18,7,11,6,-100,84,62,39,0.00,40.00,7,4,16,0.00
2014-3-9,42,32,11,26,19,5,78,59,45,0.00,40.00,13,7,27,0.00
2014-3-10,56,42,23,33,26,21,94,56,29,0.00,40.00,13,6,25,0.00
2014-3-11,43,35,21,26,23,16,81,61,46,0.00,40.00,8,6,17,0.00
2014-3-12,21,12,3,7,-4,-12,77,52,24,0.00,40.00,8,6,20,0.00
2014-3-13,44,27,-4,28,14,-10,74,56,42,0.00,40.00,10,8,22,0.00
2014-3-14,37,32,21,32,28,18,94,87,76,0.00,40.00,10,6,22,0.00
2014-3-15,20,15,4,18,7,-100,90,74,53,0.00,40.00,7,4,15,0.00
2014-3-16,31,19,-3,0,-6,-16,62,35,15,0.00,40.00,6,3,13,0.00
2014-3-17,25,18,13,16,5,-100,77,61,40,0.00,40.00,11,8,22,0.00
2014-3-18,32,27,20,28,23,14,91,86,74,0.00,40.00,7,4,11,0.00
2014-3-19,31,28,26,27,25,22,94,89,79,0.00,40.00,8,4,18,0.00
2014-3-20,39,27,14,23,18,-100,90,75,41,0.00,40.00,6,4,13,0.00
2014-3-21,34,29,10,31,24,6,96,82,61,0.00,40.00,7,4,14,0.00
2014-3-22,27,13,9,26,6,-100,96,75,64,0.00,40.00,9,6,18,0.00
2014-3-23,20,14,5,3,0,-2,75,54,40,0.00,40.00,7,6,15,0.00
2014-3-24,28,21,10,6,2,-5,69,44,30,0.00,40.00,13,7,26,0.00
2014-3-25,18,11,6,11,1,-2,84,65,42,0.00,40.00,12,8,23,0.00
2014-3-26,30,23,-4,13,4,-12,78,45,33,0.00,40.00,10,7,19,0.00
2014-3-27,36,31,25,33,26,14,95,82,58,0.00,40.00,10,6,21,0.00
2014-3-28,38,29,19,23,18,11,93,67,42,0.00,40.00,7,4,18,0.00
2014-3-29,45,26,13,21,14,-100,90,69,34,0.00,40.00,6,2,13,0.00
2014-3-30,55,41,31,30,26,19,85,56,36,0.00,40.00,12,7,26,0.00
2014-3-31,52,45,36,36,32,28,79,60,45,0.00,40.00,10,6,22,0.00
2014-4-1,47,29,19,33,20,-100,87,72,56,0.00,40.00,14,8,25,0.00
2014-4-2,45,32,16,14,12,9,78,45,23,0.00,40.00,7,4,16,0.00
2014-4-3,41,31,24,27,15,8,94,55,29,0.00,40.00,9,6,18,0.00
2014-4-4,28,26,17,26,24,15,94,92,88,0.00,40.00,12,7,25,0.00
2014-4-5,50,39,8,32,19,-100,83,51,29,0.00,40.00,10,7,18,0.00
2014-4-6,59,46,27,31,28,24,89,54,32,0.00,40.00,12,6,21,0.00
2014-4-7,60,35,18,36,27,15,97,77,30,0.00,40.00,8,2,16,0.00
2014-4-8,49,37,25,33,28,22,98,72,37,0.00,40.00,9,4,19,0.00
2014-4-9,57,43,18,32,24,16,92,51,28,0.00,40.00,19,8,32,0.00
2014-4-10,52,49,41,38,24,16,76,39,25,0.00,40.00,15,10,29,0.00
2014-4-11,53,38,21,31,24,19,92,61,31,0.00,40.00,9,4,18,0.00
2014-4-12,39,36,29,36,31,-100,93,86,66,0.00,40.00,7,4,14,0.00
2014-4-13,39,36,31,36,33,27,98,89,71,0.00,40.00,8,4,16,0.00
2014-4-14,31,25,22,26,17,10,87,72,54,0.00,40.00,9,8,22,0.00
2014-4-15,30,18,3,14,5,-1,85,60,30,0.00,40.00,9,4,18,0.00
2014-4-16,28,21,6,27,16,0,94,80,45,0.00,40.00,9,5,16,0.00
2014-4-17,35,31,28,33,29,27,96,92,86,0.00,40.00,8,4,15,0.00
2014-4-18,46,33,15,26,22,13,91,67,40,0.00,40.00,5,3,10,0.00
2014-4-19,55,41,31,38,26,-100,74,58,31,0.00,40.00,14,8,33,0.00
2014-4-20,68,56,31,44,36,26,83,52,26,0.00,40.00,8,5,15,0.00
2014-4-21,63,43,27,51,32,25,96,70,30,0.00,40.00,12,5,28,0.00
2014-4-22,46,37,26,27,25,23,90,64,42,0.00,40.00,9,6,19,0.00
2014-4-23,56,39,19,28,21,17,93,56,23,0.00,40.00,8,2,15,0.00
2014-4-24,43,37,34,34,30,19,94,78,39,0.00,40.00,9,6,22,0.00
2014-4-25,39,35,32,36,33,29,96,90,76,0.00,40.00,9,6,20,0.00
2014-4-26,44,34,30,30,29,28,96,85,53,0.00,40.00,7,5,15,0.00
2014-4-28,46,43,41,21,21,20,44,41,36,0.00,40.00,10,9,20,0.00
2014-4-29,41,35,33,33,28,21,98,79,45,0.00,40.00,10,7,24,0.00
2014-4-30,46,39,33,44,38,32,99,97,92,0.00,40.00,5,3,8,0.00
2014-5-1,39,36,33,38,35,32,99,97,93,0.00,40.00,7,4,13,0.00
2014-5-2,54,43,37,39,36,30,98,80,44,0.00,40.00,6,3,13,0.00
2014-5-3,50,42,37,40,31,-100,98,71,36,0.00,40.00,13,7,25,0.00
2014-5-4,52,41,32,32,28,23,86,63,33,0.00,40.00,9,5,18,0.00
2014-5-5,51,42,32,40,35,28,96,78,57,0.00,40.00,6,3,10,0.00
2014-5-6,60,48,32,36,34,28,94,60,35,0.00,40.00,10,5,17,0.00
2014-5-13,52,46,41,39,37,35,91,71,54,0.00,40.00,9,4,19,0.02
2014-5-14,53,45,31,34,29,24,89,54,37,0.00,40.00,10,6,19,0.01
2014-5-15,42,37,31,28,26,23,84,64,48,0.00,40.00,10,5,20,0.01
2014-5-16,49,38,25,28,22,15,94,57,25,0.00,40.00,8,4,19,0.00
2014-5-17,61,46,26,33,22,-100,93,49,19,0.00,40.00,8,4,20,0.00
2014-5-18,70,61,40,41,32,27,77,36,22,0.00,40.00,10,5,19,0.00
2014-5-19,65,54,49,46,36,-100,89,59,31,0.00,40.00,10,8,23,0.14
2014-5-20,72,55,47,54,48,-100,97,81,41,0.00,40.00,10,4,21,0.52
2014-5-21,62,55,44,51,45,43,97,73,50,0.00,40.00,10,6,19,0.05
2014-5-22,62,52,46,45,41,-100,95,68,41,0.00,40.00,9,5,19,0.05
2014-5-23,74,56,34,46,39,33,97,61,27,0.00,40.00,6,3,14,0.00
2014-5-24,82,63,38,49,40,-100,96,52,21,0.00,40.00,8,3,16,0.00
2014-5-25,83,69,49,51,42,36,87,44,19,0.00,40.00,10,5,18,0.00
2014-5-26,85,70,54,62,57,51,96,67,38,0.00,40.00,7,3,18,0.00
2014-5-27,76,62,45,57,46,33,93,59,30,0.00,40.00,8,5,16,0.00
2014-5-28,75,56,35,48,42,34,97,67,31,0.00,40.00,7,3,15,0.00
2014-5-29,85,62,39,52,45,38,97,63,24,0.00,40.00,5,2,12,0.00
2014-5-30,87,66,46,57,49,41,97,64,22,0.00,40.00,6,2,13,0.00
2014-5-31,85,72,56,63,52,-100,88,53,36,0.00,40.00,9,5,21,0.00
2014-6-1,79,68,63,67,63,58,95,85,59,0.00,40.00,9,6,18,0.52
2014-6-2,74,68,64,66,62,56,95,80,69,0.00,40.00,9,6,20,0.68
2014-6-3,71,58,47,55,50,46,97,76,45,0.00,40.00,12,7,33,0.14
2014-6-4,76,59,41,55,43,36,98,64,28,0.00,40.00,8,3,16,0.03
2014-6-5,78,60,38,57,47,37,97,68,36,0.00,40.00,7,3,15,0.00
2014-6-6,81,67,54,60,55,49,95,70,33,0.00,40.00,7,4,15,0.00
2014-6-7,57,52,45,55,48,-100,98,90,70,0.00,40.00,7,3,18,0.12
2014-6-8,69,54,34,48,40,34,98,67,29,0.00,40.00,6,2,16,0.01
2014-6-9,68,55,40,52,43,38,98,69,43,0.00,40.00,5,2,10,0.00
2014-6-10,77,60,37,52,44,37,100,65,32,0.00,40.00,6,2,15,0.00
2014-6-11,78,62,39,55,49,39,100,69,40,0.00,40.00,7,3,12,0.00
2014-6-12,63,56,44,57,50,43,97,83,69,0.00,40.00,15,8,30,0.31
2014-6-13,67,53,44,49,40,30,98,68,26,0.00,40.00,10,6,22,0.11
2014-6-14,66,55,42,49,44,-100,100,72,51,0.00,40.00,9,4,20,0.00
2014-6-15,75,60,50,64,53,41,95,78,49,0.00,40.00,11,6,26,0.37
2014-6-16,81,70,59,59,55,51,85,61,38,0.00,40.00,12,6,24,0.01
2014-6-17,81,70,56,61,57,53,96,66,43,0.00,40.00,8,4,17,0.00
2014-6-18,74,65,56,59,55,50,84,70,58,0.00,40.00,9,6,17,0.00
2014-6-19,75,65,53,61,55,50,92,73,54,0.00,40.00,11,6,23,0.00
2014-6-20,66,60,56,64,58,49,100,90,65,0.00,40.00,7,4,13,0.42
2014-6-21,69,60,57,63,57,-100,100,92,74,0.00,40.00,8,4,13,0.01
2014-6-22,83,67,56,64,60,56,100,81,44,0.00,40.00,6,3,22,0.45
2014-6-23,79,68,60,67,63,60,100,87,63,0.00,40.00,5,3,10,0.48
2014-6-24,70,61,47,64,58,47,100,89,66,0.00,40.00,7,4,13,0.02
2014-6-25,68,56,47,57,51,46,100,85,63,0.00,40.00,7,4,13,0.00
2014-6-26,77,61,41,58,53,41,100,77,50,0.00,40.00,6,2,11,0.00
2014-6-27,79,67,59,67,62,56,99,83,66,0.00,40.00,9,5,26,0.85
2014-6-28,86,75,68,70,66,-100,97,76,55,0.00,40.00,11,8,25,1.60
2014-6-29,80,72,62,69,62,55,98,76,43,0.00,40.00,14,7,26,0.26
2014-6-30,84,73,63,65,57,45,96,62,26,0.00,40.00,15,9,32,0.19
2014-7-1,72,64,56,65,58,53,95,83,68,0.00,40.00,9,6,19,0.24
2014-7-2,67,57,46,53,45,34,98,71,33,0.00,40.00,9,5,17,0.10
2014-7-3,71,56,41,53,45,39,99,74,32,0.00,40.00,7,3,17,0.00
2014-7-4,77,61,38,57,46,38,99,65,30,0.00,40.00,8,3,18,0.00
2014-7-5,80,70,63,64,56,51,97,63,46,0.00,40.00,13,8,27,0.04
2014-7-6,80,71,65,69,65,61,95,81,61,0.00,40.00,11,6,22,0.09
2014-7-7,80,68,58,60,56,51,97,69,39,0.00,40.00,10,5,21,0.18
2014-7-8,60,56,47,58,53,46,100,92,76,0.00,40.00,7,4,14,0.55
2014-7-9,67,56,45,53,48,43,100,79,43,0.00,40.00,7,4,15,0.01
2014-7-10,80,62,38,59,50,38,99,70,40,0.00,40.00,7,3,15,0.00
2014-7-11,73,67,61,63,61,58,94,84,69,0.00,40.00,12,6,25,0.07
2014-7-12,78,67,55,66,62,54,100,83,56,0.00,40.00,6,3,11,0.02
2014-7-13,68,61,54,62,51,45,100,73,45,0.00,40.00,9,5,18,0.00
2014-7-14,62,53,44,53,49,44,100,88,64,0.00,40.00,6,3,13,0.34
2014-7-15,64,55,43,51,48,42,98,80,56,0.00,40.00,7,5,19,0.08
2014-7-16,71,54,37,53,45,37,100,76,36,0.00,40.00,6,3,17,0.01
2014-7-17,76,61,41,56,50,41,99,71,41,0.00,40.00,7,3,16,0.00
2014-7-18,78,63,46,57,53,46,99,74,45,0.00,40.00,8,4,22,0.00
2014-7-19,76,69,62,61,59,55,82,70,59,0.00,40.00,12,7,23,0.00
2014-7-20,81,70,64,66,62,59,84,76,60,0.00,40.00,9,6,20,0.00
2014-7-21,88,78,69,71,68,63,84,73,55,0.00,40.00,8,6,16,0.00
2014-7-22,77,68,52,72,64,51,98,85,73,0.00,40.00,10,6,24,0.67
2014-7-23,72,60,45,56,52,45,100,77,52,0.00,40.00,6,2,13,0.01
2014-7-24,76,60,41,61,50,41,99,76,42,0.00,40.00,5,2,12,0.00
2014-7-25,72,64,55,65,61,54,99,89,73,0.00,40.00,7,4,15,0.08
2014-7-26,81,70,62,67,60,51,96,74,37,0.00,40.00,10,4,19,0.03
2014-7-27,68,59,52,60,56,51,99,90,66,0.00,40.00,9,4,16,0.09
2014-7-28,71,60,42,59,52,42,100,78,52,0.00,40.00,8,4,18,0.10
2014-7-29,72,60,49,57,54,49,100,83,55,0.00,40.00,7,4,12,0.10
2014-7-30,73,58,44,58,51,44,100,83,46,0.00,40.00,7,3,15,0.00
2014-7-31,75,59,44,60,49,44,99,77,41,0.00,40.00,8,3,14,0.00
2014-8-1,76,61,43,59,51,43,99,76,43,0.00,40.00,5,2,12,0.00
2014-8-2,80,63,42,63,53,42,99,76,44,0.00,40.00,7,2,12,0.00
2014-8-3,76,65,54,64,59,53,100,83,59,0.00,40.00,6,3,13,0.05
2014-8-4,74,62,49,62,57,49,100,85,60,0.00,40.00,6,3,13,0.02
2014-8-5,75,62,49,61,55,49,100,81,51,0.00,40.00,5,2,11,0.02
2014-8-6,76,63,45,61,55,45,99,76,52,0.00,40.00,7,3,12,0.01
2014-8-7,81,74,56,64,57,53,98,59,39,0.00,40.00,6,3,11,0.00
2014-8-8,82,66,46,63,54,46,99,71,33,0.00,40.00,5,2,15,0.00
2014-8-9,80,64,45,61,55,45,99,77,43,0.00,40.00,5,2,10,0.00
2014-8-10,82,69,51,65,57,51,99,70,43,0.00,40.00,6,3,12,0.00
2014-8-11,63,60,55,62,58,53,99,96,92,0.00,40.00,8,3,23,0.50
2014-8-12,70,60,53,56,51,47,97,76,45,0.00,40.00,9,5,22,0.06
2014-8-13,68,60,43,57,51,42,100,76,48,0.00,40.00,8,4,16,0.00
2014-8-14,70,53,33,52,43,33,99,74,40,0.00,40.00,5,2,10,0.00
2014-8-15,80,63,36,64,54,35,99,74,50,0.00,40.00,6,3,13,0.00
2014-8-16,72,65,50,66,61,49,99,84,65,0.00,40.00,7,4,15,0.03
2014-8-17,71,58,52,57,53,50,99,85,56,0.00,40.00,6,4,12,0.03
2014-8-18,70,63,58,66,61,54,97,92,84,0.00,40.00,6,4,10,0.29
2014-8-19,66,61,56,65,60,56,100,96,88,0.00,40.00,6,4,12,0.05
2014-8-20,67,61,55,62,59,55,100,93,80,0.00,40.00,5,2,9,0.01
2014-8-21,73,64,53,66,61,53,100,91,77,0.00,40.00,7,3,12,0.00
2014-8-22,73,67,62,69,65,62,100,96,87,0.00,40.00,3,2,8,0.05
2014-8-23,75,67,61,70,65,61,100,92,81,0.00,40.00,6,3,12,0.03
2014-8-24,78,72,65,69,66,63,95,82,69,0.00,40.00,10,7,23,0.00
2014-8-25,85,72,63,70,64,55,100,77,46,0.00,40.00,12,7,21,0.47
2014-8-26,67,58,47,55,50,46,99,74,53,0.00,40.00,10,5,17,0.09
2014-8-27,67,56,43,55,49,43,100,80,48,0.00,40.00,7,3,13,0.00
2014-8-28,73,60,42,57,51,42,100,74,44,0.00,40.00,6,2,12,0.00
2014-8-29,66,63,59,66,61,55,99,94,81,0.00,40.00,7,5,20,1.12
2014-8-30,63,59,52,63,58,52,100,97,94,0.00,40.00,5,3,13,0.87
2014-8-31,74,62,46,66,57,46,100,86,67,0.00,40.00,9,5,21,0.01
2014-9-1,70,66,51,67,62,51,99,88,66,0.00,40.00,10,5,20,0.59
2014-9-2,74,60,45,58,50,45,100,76,37,0.00,40.00,7,4,21,0.12
2014-9-3,75,62,48,60,56,48,100,82,50,0.00,40.00,19,6,29,0.69
2014-9-4,74,64,51,70,62,51,100,93,73,0.00,40.00,12,4,25,0.91
2014-9-5,71,59,45,69,54,45,100,83,72,0.00,40.00,9,5,19,0.01
2014-9-6,68,59,42,52,45,39,100,63,37,0.00,40.00,8,5,20,0.00
2014-9-7,75,68,56,54,50,46,92,54,36,0.00,40.00,10,6,17,0.00
2014-9-8,73,61,51,56,52,50,97,77,48,0.00,40.00,11,6,28,0.00
2014-9-9,78,65,54,65,59,54,100,82,62,0.00,40.00,9,4,19,0.00
2014-9-10,54,45,39,54,44,38,100,98,95,0.00,40.00,11,8,30,1.56
2014-9-11,48,42,31,38,36,31,98,83,63,0.00,40.00,7,4,20,0.05
2014-9-12,48,41,31,42,37,31,100,88,62,0.00,40.00,4,2,11,0.01
2014-9-13,56,44,33,42,36,31,100,75,42,0.00,40.00,6,2,19,0.01
2014-9-14,61,50,42,45,40,37,90,71,45,0.00,40.00,12,7,24,0.00
2014-9-15,56,48,32,46,39,32,100,75,47,0.00,40.00,9,5,19,0.00
2014-9-16,67,53,30,45,39,30,99,63,37,0.00,40.00,9,5,21,0.00
2014-9-17,65,52,40,49,44,39,99,77,53,0.00,40.00,7,4,14,0.00
2014-9-18,58,45,37,47,41,34,99,86,65,0.00,40.00,6,4,12,0.00
2014-9-19,66,59,48,58,52,47,97,79,60,0.00,40.00,13,8,29,0.00
2014-9-20,67,62,47,64,58,47,100,84,66,0.00,40.00,8,6,18,0.04
2014-9-21,53,47,34,52,42,34,100,85,56,0.00,40.00,9,5,19,0.43
2014-9-22,68,49,31,51,42,31,100,80,48,0.00,40.00,9,4,18,0.07
2014-9-23,76,59,38,55,47,38,100,71,37,0.00,40.00,7,3,13,0.00
2014-9-24,70,63,51,51,49,45,100,62,44,0.00,40.00,9,6,19,0.00
2014-9-25,73,62,56,60,55,50,88,77,62,0.00,40.00,6,4,14,0.00
2014-9-26,78,62,44,56,50,44,100,69,37,0.00,40.00,7,3,15,0.00
2014-9-27,80,66,48,59,55,47,98,70,46,0.00,40.00,10,5,19,0.00
2014-9-28,81,68,51,61,57,51,100,72,42,0.00,40.00,7,3,14,0.00
2014-9-29,49,41,38,48,40,36,99,95,88,0.00,40.00,9,6,19,0.25
2014-9-30,58,44,37,43,39,36,98,85,55,0.00,40.00,8,4,16,0.01
2014-10-1,56,50,44,54,47,42,99,88,66,0.00,40.00,9,6,19,0.06
2014-10-2,62,55,51,56,54,51,100,95,78,0.00,40.00,6,3,11,0.15
2014-10-3,50,45,34,50,43,33,100,95,83,0.00,40.00,11,7,22,0.59
2014-10-4,39,37,34,38,36,32,99,93,85,0.00,40.00,8,6,18,0.59
2014-10-5,47,37,34,33,29,25,92,74,42,0.00,40.00,9,6,19,0.04
2014-10-6,54,43,34,41,28,21,95,58,28,0.00,40.00,12,7,25,0.03
2014-10-7,52,41,33,39,32,28,99,73,44,0.00,40.00,9,5,24,0.03
2014-10-8,48,40,35,34,28,23,87,65,39,0.00,40.00,12,7,26,0.00
2014-10-9,46,38,31,35,32,29,95,79,61,0.00,40.00,8,4,14,0.00
2014-10-10,50,39,25,38,30,24,97,74,51,0.00,40.00,7,4,15,0.00
2014-10-11,56,39,25,36,29,24,98,70,38,0.00,40.00,6,3,12,0.01
2014-10-12,61,49,37,38,33,28,74,56,34,0.00,40.00,12,6,26,0.01
2014-10-13,51,49,46,49,46,38,100,90,62,0.00,40.00,6,3,14,0.16
2014-10-14,50,46,42,46,44,41,100,94,81,0.00,40.00,9,6,20,0.43
2014-10-15,59,47,31,43,40,30,97,77,46,0.00,40.00,8,5,17,0.01
2014-10-16,61,42,26,44,36,25,98,82,52,0.00,40.00,6,2,12,0.00
2014-10-17,44,42,37,44,41,37,100,97,91,0.00,40.00,10,5,20,0.26
2014-10-18,45,35,25,37,30,24,98,83,50,0.00,40.00,7,4,19,0.10
2014-10-19,56,41,25,44,36,24,98,83,60,0.00,40.00,10,4,19,0.02
2014-10-20,48,45,40,44,42,38,98,91,83,0.00,40.00,6,4,16,0.03